createdAt,value
2018-02-13T00:00:24.569Z,75.65
2018-02-13T00:02:53.575Z,75.85
2018-02-13T00:05:19.499Z,76.02
2018-02-13T00:07:47.064Z,76.00
2018-02-13T00:10:12.968Z,76.38
2018-02-13T00:12:42.338Z,76.51
2018-02-13T00:15:08.268Z,76.74
2018-02-13T00:17:34.179Z,76.72
2018-02-13T00:20:00.150Z,76.88
2018-02-13T00:22:38.428Z,76.95
2018-02-13T00:25:04.368Z,77.06
2018-02-13T00:27:30.268Z,77.08
2018-02-13T00:29:56.183Z,76.97
2018-02-13T00:32:22.128Z,76.96
2018-02-13T00:34:48.040Z,76.96
2018-02-13T00:37:13.956Z,77.05
2018-02-13T00:39:39.933Z,76.94
2018-02-13T00:42:05.901Z,77.11
2018-02-13T00:44:32.022Z,77.34
2018-02-13T00:46:57.943Z,77.29
2018-02-13T00:49:26.651Z,77.60
2018-02-13T00:51:52.568Z,77.56
2018-02-13T00:54:18.480Z,77.51
2018-02-13T00:56:44.479Z,77.19
2018-02-13T00:59:10.361Z,77.43
2018-02-13T01:01:40.187Z,77.53
2018-02-13T01:04:06.103Z,77.63
2018-02-13T01:06:33.509Z,77.52
2018-02-13T01:08:59.417Z,77.31
2018-02-13T01:11:29.150Z,77.29
2018-02-13T01:13:55.110Z,76.83
2018-02-13T01:16:23.048Z,76.62
2018-02-13T01:18:48.962Z,76.52
2018-02-13T01:21:18.348Z,76.65
2018-02-13T01:23:44.295Z,76.59
2018-02-13T01:26:11.984Z,76.24
2018-02-13T01:28:37.932Z,76.10
2018-02-13T01:31:03.856Z,76.17
2018-02-13T01:33:29.847Z,76.14
2018-02-13T01:35:55.805Z,75.93
2018-02-13T01:38:23.690Z,75.98
2018-02-13T01:40:49.606Z,75.95
2018-02-13T01:43:18.356Z,76.33
2018-02-13T01:45:44.267Z,76.33
2018-02-13T01:48:13.862Z,76.22
2018-02-13T01:50:39.767Z,76.10
2018-02-13T01:53:09.613Z,76.11
2018-02-13T01:55:35.555Z,76.06
2018-02-13T01:58:02.920Z,75.99
2018-02-13T02:00:28.843Z,75.90
2018-02-13T02:02:58.067Z,75.56
2018-02-13T02:05:23.988Z,75.59
2018-02-13T02:07:49.897Z,75.58
2018-02-13T02:10:15.833Z,75.65
2018-02-13T02:12:41.742Z,75.86
2018-02-13T02:15:09.576Z,76.02
2018-02-13T02:17:35.493Z,75.85
2018-02-13T02:20:04.984Z,76.25
2018-02-13T02:22:30.918Z,76.43
2018-02-13T02:24:59.988Z,76.29
2018-02-13T02:27:25.931Z,76.53
2018-02-13T02:29:53.176Z,76.65
2018-02-13T02:32:19.109Z,76.96
2018-02-13T02:34:48.983Z,77.40
2018-02-13T02:37:14.992Z,76.77
2018-02-13T02:39:44.282Z,76.29
2018-02-13T02:42:10.191Z,76.36
2018-02-13T02:44:36.092Z,75.76
2018-02-13T02:47:02.024Z,75.65
2018-02-13T02:49:28.069Z,75.65
2018-02-13T02:51:54.432Z,76.05
2018-02-13T02:54:20.360Z,75.88
2018-02-13T02:56:49.210Z,75.64
2018-02-13T02:59:15.143Z,75.65
2018-02-13T03:01:44.756Z,75.85
2018-02-13T03:04:10.681Z,76.20
2018-02-13T03:06:38.621Z,76.18
2018-02-13T03:09:04.572Z,76.16
2018-02-13T03:11:33.304Z,76.36
2018-02-13T03:13:59.248Z,76.34
2018-02-13T03:16:28.008Z,76.32
2018-02-13T03:18:53.928Z,76.41
2018-02-13T03:21:19.884Z,76.72
2018-02-13T03:23:45.832Z,76.56
2018-02-13T03:26:11.774Z,76.63
2018-02-13T03:28:41.447Z,76.94
2018-02-13T03:31:07.415Z,77.00
2018-02-13T03:33:35.053Z,76.90
2018-02-13T03:36:00.988Z,77.00
2018-02-13T03:38:30.371Z,77.10
2018-02-13T03:40:56.317Z,77.02
2018-02-13T03:43:23.873Z,76.96
2018-02-13T03:48:30.692Z,76.61
2018-02-13T03:50:56.641Z,76.71
2018-02-13T03:53:22.536Z,77.02
2018-02-13T03:55:48.479Z,77.40
2018-02-13T03:58:14.426Z,77.53
2018-02-13T04:00:40.356Z,77.30
2018-02-13T04:03:06.291Z,77.33
2018-02-13T04:05:32.214Z,77.23
2018-02-13T04:07:58.110Z,77.24
2018-02-13T04:10:24.076Z,77.44
2018-02-13T04:12:50.007Z,77.53
2018-02-13T04:15:15.972Z,77.51
2018-02-13T04:17:41.888Z,77.57
2018-02-13T04:20:09.516Z,77.76
2018-02-13T04:22:35.426Z,77.76
2018-02-13T04:25:04.779Z,77.90
2018-02-13T04:27:30.694Z,77.97
2018-02-13T04:29:59.992Z,78.09
2018-02-13T04:32:25.910Z,78.44
2018-02-13T04:34:51.814Z,78.19
2018-02-13T04:37:17.749Z,78.07
2018-02-13T04:39:43.675Z,77.83
2018-02-13T04:42:11.027Z,78.45
2018-02-13T04:44:36.919Z,78.18
2018-02-13T04:47:06.197Z,77.94
2018-02-13T04:49:32.114Z,77.93
2018-02-13T04:52:01.318Z,77.86
2018-02-13T04:54:27.212Z,77.99
2018-02-13T04:56:55.072Z,77.68
2018-02-13T04:59:20.997Z,77.65
2018-02-13T05:01:50.186Z,77.75
2018-02-13T05:04:16.113Z,77.83
2018-02-13T05:06:45.136Z,77.72
2018-02-13T05:09:11.091Z,77.54
2018-02-13T05:11:37.024Z,77.36
2018-02-13T05:14:02.962Z,77.74
2018-02-13T05:16:28.892Z,77.84
2018-02-13T05:18:56.063Z,77.80
2018-02-13T05:21:21.991Z,77.94
2018-02-13T05:23:51.398Z,78.06
2018-02-13T05:26:17.303Z,77.77
2018-02-13T05:28:46.497Z,77.61
2018-02-13T05:31:12.437Z,77.51
2018-02-13T05:33:39.907Z,77.56
2018-02-13T05:36:05.811Z,77.48
2018-02-13T05:38:34.568Z,77.33
2018-02-13T05:41:00.521Z,77.27
2018-02-13T05:43:29.268Z,77.38
2018-02-13T05:45:55.177Z,77.47
2018-02-13T05:48:21.567Z,77.34
2018-02-13T05:50:47.508Z,77.25
2018-02-13T05:53:13.453Z,77.07
2018-02-13T05:55:40.877Z,77.07
2018-02-13T05:58:06.812Z,77.12
2018-02-13T06:00:36.282Z,77.03
2018-02-13T06:03:02.206Z,76.96
2018-02-13T06:05:31.463Z,76.87
2018-02-13T06:07:57.372Z,76.98
2018-02-13T06:10:26.711Z,76.94
2018-02-13T06:12:52.654Z,77.21
2018-02-13T06:15:19.755Z,77.28
2018-02-13T06:17:45.685Z,77.02
2018-02-13T06:20:14.705Z,77.22
2018-02-13T06:22:40.630Z,77.25
2018-02-13T06:25:06.564Z,77.22
2018-02-13T06:27:32.504Z,77.11
2018-02-13T06:29:58.410Z,77.34
2018-02-13T06:32:27.378Z,77.33
2018-02-13T06:34:53.306Z,77.37
2018-02-13T06:37:22.841Z,77.37
2018-02-13T06:39:48.757Z,77.48
2018-02-13T06:42:16.104Z,77.33
2018-02-13T06:44:42.044Z,76.83
2018-02-13T06:47:11.474Z,76.76
2018-02-13T06:49:37.403Z,76.48
2018-02-13T06:52:06.390Z,76.07
2018-02-13T06:54:32.323Z,75.77
2018-02-13T06:57:01.379Z,75.43
2018-02-13T06:59:27.309Z,75.20
2018-02-13T07:01:53.256Z,73.38
2018-02-13T07:04:19.185Z,70.92
2018-02-13T07:06:45.129Z,68.62
2018-02-13T07:09:12.287Z,67.14
2018-02-13T07:11:38.252Z,65.96
2018-02-13T07:14:07.389Z,66.14
2018-02-13T07:16:33.323Z,65.01
2018-02-13T07:19:00.865Z,62.36
2018-02-13T07:21:26.781Z,59.82
2018-02-13T07:23:55.530Z,57.86
2018-02-13T07:26:21.531Z,54.66
2018-02-13T07:28:50.980Z,52.12
2018-02-13T07:31:16.910Z,50.10
2018-02-13T07:33:46.762Z,50.46
2018-02-13T07:36:12.666Z,50.25
2018-02-13T07:38:38.580Z,48.98
2018-02-13T07:41:04.509Z,49.38
2018-02-13T07:43:30.431Z,47.45
2018-02-13T07:45:57.655Z,45.48
2018-02-13T07:48:23.584Z,45.63
2018-02-13T07:50:53.073Z,45.40
2018-02-13T07:53:19.011Z,46.34
2018-02-13T07:55:48.346Z,48.11
2018-02-13T07:58:14.243Z,45.64
2018-02-13T08:00:41.457Z,44.54
2018-02-13T08:03:07.380Z,42.43
2018-02-13T08:05:36.571Z,40.06
2018-02-13T08:08:02.513Z,40.06
2018-02-13T08:10:31.777Z,38.24
2018-02-13T08:12:57.702Z,38.39
2018-02-13T08:15:23.649Z,40.21
2018-02-13T08:17:49.601Z,41.03
2018-02-13T08:20:15.503Z,41.87
2018-02-13T08:22:43.147Z,41.14
2018-02-13T08:25:09.145Z,40.84
2018-02-13T08:27:38.201Z,43.44
2018-02-13T08:30:04.159Z,46.28
2018-02-13T08:32:33.344Z,46.12
2018-02-13T08:34:59.235Z,44.72
2018-02-13T08:37:26.685Z,44.56
2018-02-13T08:39:52.622Z,44.84
2018-02-13T08:42:21.724Z,44.93
2018-02-13T08:44:47.656Z,43.28
2018-02-13T08:47:17.865Z,41.67
2018-02-13T08:49:43.776Z,41.63
2018-02-13T08:52:09.699Z,42.01
2018-02-13T08:54:35.746Z,42.74
2018-02-13T08:57:01.644Z,42.81
2018-02-13T08:59:27.669Z,43.13
2018-02-13T09:01:53.662Z,42.18
2018-02-13T09:04:22.758Z,39.47
2018-02-13T09:06:48.710Z,39.22
2018-02-13T09:09:17.793Z,38.89
2018-02-13T09:11:44.141Z,37.97
2018-02-13T09:14:14.107Z,38.81
2018-02-13T09:16:40.016Z,39.91
2018-02-13T09:19:07.315Z,38.81
2018-02-13T09:21:33.228Z,37.88
2018-02-13T09:24:01.213Z,37.37
2018-02-13T09:26:27.137Z,37.01
2018-02-13T09:28:53.087Z,36.51
2018-02-13T09:31:19.002Z,34.14
2018-02-13T09:33:44.943Z,35.22
2018-02-13T09:36:13.965Z,33.82
2018-02-13T09:38:39.882Z,34.38
2018-02-13T09:41:09.312Z,32.84
2018-02-13T09:43:35.319Z,31.35
2018-02-13T09:46:02.539Z,31.12
2018-02-13T09:48:28.454Z,30.84
2018-02-13T09:50:57.779Z,31.84
2018-02-13T09:53:23.843Z,33.77
2018-02-13T09:55:53.394Z,34.75
2018-02-13T09:58:19.336Z,34.87
2018-02-13T10:00:46.795Z,34.99
2018-02-13T10:03:12.730Z,34.25
2018-02-13T10:05:38.641Z,33.85
2018-02-13T10:08:04.643Z,32.54
2018-02-13T10:10:30.575Z,33.72
2018-02-13T10:12:58.461Z,33.07
2018-02-13T10:15:24.421Z,33.33
2018-02-13T10:17:53.552Z,35.09
2018-02-13T10:20:19.512Z,32.67
2018-02-13T10:22:49.989Z,33.43
2018-02-13T10:25:15.926Z,33.89
2018-02-13T10:27:42.274Z,34.48
2018-02-13T10:30:08.216Z,33.59
2018-02-13T10:32:37.632Z,32.79
2018-02-13T10:35:03.544Z,32.24
2018-02-13T10:37:33.451Z,32.37
2018-02-13T10:39:59.362Z,32.31
2018-02-13T10:42:25.283Z,32.60
2018-02-13T10:44:51.235Z,32.72
2018-02-13T10:47:17.205Z,33.17
2018-02-13T10:49:43.373Z,33.25
2018-02-13T10:52:09.307Z,33.35
2018-02-13T10:54:38.246Z,33.64
2018-02-13T10:57:04.161Z,33.26
2018-02-13T10:59:33.374Z,32.74
2018-02-13T11:02:05.497Z,32.34
2018-02-13T11:04:31.430Z,33.44
2018-02-13T11:06:57.382Z,33.57
2018-02-13T11:09:23.296Z,33.08
2018-02-13T11:11:49.228Z,31.66
2018-02-13T11:14:18.286Z,31.67
2018-02-13T11:16:44.214Z,30.41
2018-02-13T11:19:10.134Z,30.71
2018-02-13T11:21:36.051Z,30.82
2018-02-13T11:24:02.008Z,31.33
2018-02-13T11:26:29.477Z,31.47
2018-02-13T11:28:55.442Z,31.95
2018-02-13T11:31:24.698Z,31.96
2018-02-13T11:33:50.624Z,33.28
2018-02-13T11:36:19.805Z,33.50
2018-02-13T11:38:45.731Z,32.59
2018-02-13T11:41:13.068Z,33.62
2018-02-13T11:43:39.008Z,32.79
2018-02-13T11:46:07.863Z,32.71
2018-02-13T11:48:33.796Z,33.56
2018-02-13T11:51:03.786Z,31.84
2018-02-13T11:53:29.702Z,30.86
2018-02-13T11:55:55.605Z,31.53
2018-02-13T11:58:21.575Z,33.91
2018-02-13T12:00:47.502Z,33.91
2018-02-13T12:03:14.161Z,33.57
2018-02-13T12:05:40.302Z,32.75
2018-02-13T12:08:10.335Z,32.18
2018-02-13T12:10:36.272Z,32.70
2018-02-13T12:13:03.588Z,32.25
2018-02-13T12:15:29.531Z,33.43
2018-02-13T12:17:58.463Z,32.19
2018-02-13T12:20:24.444Z,32.33
2018-02-13T12:22:53.795Z,32.20
2018-02-13T12:25:32.172Z,33.45
2018-02-13T12:27:58.126Z,34.44
2018-02-13T12:30:24.038Z,34.68
2018-02-13T12:32:49.942Z,33.83
2018-02-13T12:35:15.945Z,33.60
2018-02-13T12:37:41.861Z,32.43
2018-02-13T12:40:07.828Z,32.25
2018-02-13T12:42:33.775Z,32.85
2018-02-13T12:44:59.709Z,34.82
2018-02-13T12:47:25.667Z,33.52
2018-02-13T12:49:51.608Z,32.58
2018-02-13T12:52:17.517Z,32.69
2018-02-13T12:54:43.543Z,32.88
2018-02-13T12:57:09.650Z,33.44
2018-02-13T12:59:38.964Z,34.46
2018-02-13T13:02:04.881Z,32.60
2018-02-13T13:04:34.392Z,33.91
2018-02-13T13:07:00.326Z,33.82
2018-02-13T13:09:26.289Z,35.09
2018-02-13T13:11:52.191Z,35.19
2018-02-13T13:14:18.120Z,35.56
2018-02-13T13:16:45.077Z,35.17
2018-02-13T13:19:11.004Z,34.52
2018-02-13T13:21:40.217Z,34.20
2018-02-13T13:24:06.145Z,35.56
2018-02-13T13:26:35.059Z,34.74
2018-02-13T13:29:00.910Z,34.43
2018-02-13T13:31:30.114Z,34.08
2018-02-13T13:33:55.952Z,34.76
2018-02-13T13:36:23.723Z,33.65
2018-02-13T13:38:49.570Z,34.63
2018-02-13T13:41:18.371Z,33.72
2018-02-13T13:43:44.237Z,34.68
2018-02-13T13:46:10.137Z,34.39
2018-02-13T13:48:35.997Z,33.08
2018-02-13T13:51:01.848Z,35.28
2018-02-13T13:53:31.435Z,33.74
2018-02-13T13:55:57.271Z,33.08
2018-02-13T13:58:25.015Z,33.00
2018-02-13T14:00:50.865Z,31.92
2018-02-13T14:03:19.767Z,32.86
2018-02-13T14:05:45.619Z,33.37
2018-02-13T14:08:14.618Z,33.06
2018-02-13T14:10:40.471Z,34.90
2018-02-13T14:13:09.645Z,33.81
2018-02-13T14:15:35.538Z,34.09
2018-02-13T14:18:04.530Z,35.30
2018-02-13T14:20:30.370Z,35.21
2018-02-13T14:22:56.230Z,34.97
2018-02-13T14:25:22.086Z,35.72
2018-02-13T14:27:47.984Z,33.43
2018-02-13T14:30:15.681Z,33.78
2018-02-13T14:32:41.568Z,34.22
2018-02-13T14:35:11.294Z,35.10
2018-02-13T14:37:37.132Z,33.95
2018-02-13T14:40:04.628Z,34.79
2018-02-13T14:42:30.521Z,34.90
2018-02-13T14:44:59.278Z,33.98
2018-02-13T14:47:25.200Z,34.06
2018-02-13T14:52:21.787Z,34.58
2018-02-13T14:54:49.443Z,33.75
2018-02-13T14:57:15.354Z,34.01
2018-02-13T14:59:41.257Z,35.83
2018-02-13T15:02:07.418Z,35.66
2018-02-13T15:04:33.248Z,36.46
2018-02-13T15:07:02.274Z,36.00
2018-02-13T15:09:28.148Z,35.12
2018-02-13T15:11:57.233Z,33.70
2018-02-13T15:14:23.112Z,34.92
2018-02-13T15:16:52.492Z,33.87
2018-02-13T15:19:18.368Z,35.40
2018-02-13T15:21:45.384Z,34.76
2018-02-13T15:24:11.347Z,34.07
2018-02-13T15:26:40.729Z,34.15
2018-02-13T15:29:06.562Z,33.98
2018-02-13T15:31:35.146Z,34.46
2018-02-13T15:34:01.016Z,35.65
2018-02-13T15:36:26.865Z,36.09
2018-02-13T15:38:52.725Z,35.67
2018-02-13T15:41:18.609Z,34.59
2018-02-13T15:43:46.195Z,33.13
2018-02-13T15:46:12.082Z,35.46
2018-02-13T15:48:41.032Z,36.40
2018-02-13T15:51:06.883Z,37.79
2018-02-13T15:53:36.479Z,38.54
2018-02-13T15:56:02.416Z,36.08
2018-02-13T15:58:31.959Z,36.70
2018-02-13T16:00:57.810Z,36.44
2018-02-13T16:03:25.224Z,37.32
2018-02-13T16:05:51.099Z,37.42
2018-02-13T16:08:20.522Z,37.77
2018-02-13T16:10:46.401Z,37.74
2018-02-13T16:13:12.253Z,38.75
2018-02-13T16:15:38.098Z,39.99
2018-02-13T16:18:03.965Z,41.14
2018-02-13T16:20:32.949Z,40.75
2018-02-13T16:22:58.816Z,40.84
2018-02-13T16:25:26.137Z,40.48
2018-02-13T16:27:51.997Z,39.82
2018-02-13T16:30:21.274Z,40.81
2018-02-13T16:32:47.211Z,41.46
2018-02-13T16:35:17.522Z,43.07
2018-02-13T16:37:43.393Z,43.40
2018-02-13T16:40:10.481Z,43.73
2018-02-13T16:42:36.309Z,44.01
2018-02-13T16:45:05.649Z,44.41
2018-02-13T16:47:31.565Z,44.49
2018-02-13T16:49:57.426Z,44.27
2018-02-13T16:52:23.255Z,44.45
2018-02-13T16:54:49.163Z,45.47
2018-02-13T16:57:18.075Z,45.70
2018-02-13T16:59:43.908Z,46.75
2018-02-13T17:02:11.519Z,47.32
2018-02-13T17:04:37.367Z,46.99
2018-02-13T17:07:06.652Z,46.80
2018-02-13T17:09:32.685Z,46.98
2018-02-13T17:12:02.272Z,47.82
2018-02-13T17:14:28.157Z,47.92
2018-02-13T17:16:55.684Z,47.82
2018-02-13T17:19:21.598Z,47.94
2018-02-13T17:21:51.037Z,48.23
2018-02-13T17:24:16.857Z,47.88
2018-02-13T17:26:42.734Z,48.16
2018-02-13T17:29:08.606Z,48.58
2018-02-13T17:31:34.496Z,49.11
2018-02-13T17:34:02.360Z,48.74
2018-02-13T17:36:28.233Z,49.05
2018-02-13T17:38:57.251Z,49.43
2018-02-13T17:41:23.091Z,49.24
2018-02-13T17:43:52.745Z,49.81
2018-02-13T17:46:18.592Z,49.60
2018-02-13T17:48:47.549Z,49.87
2018-02-13T17:51:13.386Z,49.55
2018-02-13T17:53:40.769Z,49.93
2018-02-13T17:56:06.657Z,50.13
2018-02-13T17:58:35.397Z,50.24
2018-02-13T18:01:01.339Z,50.77
2018-02-13T18:03:27.202Z,50.75
2018-02-13T18:05:53.182Z,51.19
2018-02-13T18:08:19.261Z,51.19
2018-02-13T18:10:48.214Z,51.53
2018-02-13T18:13:14.134Z,51.58
2018-02-13T18:15:43.452Z,51.80
2018-02-13T18:18:09.302Z,51.93
2018-02-13T18:20:36.624Z,52.23
2018-02-13T18:23:02.497Z,52.32
2018-02-13T18:25:31.229Z,52.33
2018-02-13T18:27:57.061Z,52.38
2018-02-13T18:30:26.009Z,52.83
2018-02-13T18:32:51.854Z,53.09
2018-02-13T18:35:21.495Z,53.53
2018-02-13T18:37:47.345Z,53.85
2018-02-13T18:40:13.197Z,53.72
2018-02-13T18:42:39.076Z,53.92
2018-02-13T18:45:04.935Z,54.08
2018-02-13T18:47:33.803Z,54.37
2018-02-13T18:49:59.697Z,54.95
2018-02-13T18:54:52.907Z,55.10
2018-02-13T18:59:49.625Z,55.22
2018-02-13T19:02:16.816Z,55.30
2018-02-13T19:04:42.666Z,55.36
2018-02-13T19:07:12.082Z,55.25
2018-02-13T19:09:37.899Z,55.47
2018-02-13T19:12:07.096Z,55.83
2018-02-13T19:14:33.136Z,56.11
2018-02-13T19:19:24.764Z,56.38
2018-02-13T19:21:50.608Z,56.39
2018-02-13T19:24:18.456Z,56.48
2018-02-13T19:26:44.300Z,56.54
2018-02-13T19:29:14.024Z,56.70
2018-02-13T19:31:39.888Z,56.95
2018-02-13T19:34:07.578Z,57.15
2018-02-13T19:36:33.538Z,57.28
2018-02-13T19:39:02.974Z,57.14
2018-02-13T19:41:28.842Z,57.53
2018-02-13T19:43:58.352Z,57.39
2018-02-13T19:46:24.181Z,57.45
2018-02-13T19:48:51.649Z,57.21
2018-02-13T19:51:17.498Z,57.37
2018-02-13T19:53:43.322Z,57.24
2018-02-13T19:56:09.214Z,57.10
2018-02-13T19:58:35.067Z,57.04
2018-02-13T20:01:04.793Z,57.09
2018-02-13T20:03:30.697Z,57.35
2018-02-13T20:05:59.961Z,57.15
2018-02-13T20:08:25.850Z,57.15
2018-02-13T20:10:52.910Z,57.34
2018-02-13T20:13:18.777Z,57.50
2018-02-13T20:15:47.512Z,57.34
2018-02-13T20:18:13.376Z,57.50
2018-02-13T20:20:42.256Z,57.52
2018-02-13T20:23:08.059Z,57.45
2018-02-13T20:25:37.367Z,57.97
2018-02-13T20:28:03.210Z,58.18
2018-02-13T20:30:29.091Z,58.35
2018-02-13T20:32:54.957Z,58.53
2018-02-13T20:35:20.823Z,58.20
2018-02-13T20:37:49.901Z,58.45
2018-02-13T20:40:15.768Z,58.52
2018-02-13T20:42:43.100Z,58.40
2018-02-13T20:45:08.947Z,58.17
2018-02-13T20:50:05.696Z,58.74
2018-02-13T20:52:32.887Z,59.00
2018-02-13T20:54:58.714Z,58.90
2018-02-13T20:57:27.845Z,58.94
2018-02-13T20:59:53.700Z,59.14
2018-02-13T21:02:23.351Z,59.18
2018-02-13T21:04:49.219Z,59.48
2018-02-13T21:07:15.066Z,59.52
2018-02-13T21:09:40.957Z,59.54
2018-02-13T21:12:06.821Z,59.54
2018-02-13T21:14:33.960Z,59.54
2018-02-13T21:16:59.848Z,59.37
2018-02-13T21:19:29.634Z,59.64
2018-02-13T21:21:55.490Z,59.35
2018-02-13T21:24:24.738Z,59.72
2018-02-13T21:26:50.564Z,59.55
2018-02-13T21:29:18.458Z,59.90
2018-02-13T21:31:44.312Z,59.82
2018-02-13T21:34:13.381Z,60.07
2018-02-13T21:36:39.242Z,60.23
2018-02-13T21:39:08.229Z,60.53
2018-02-13T21:41:34.071Z,60.55
2018-02-13T21:43:59.917Z,60.58
2018-02-13T21:46:25.798Z,60.71
2018-02-13T21:48:51.632Z,60.74
2018-02-13T21:51:20.889Z,60.75
2018-02-13T21:53:46.756Z,60.86
2018-02-13T21:56:13.976Z,60.97
2018-02-13T21:58:39.802Z,60.84
2018-02-13T22:01:09.162Z,61.02
2018-02-13T22:03:35.024Z,61.15
2018-02-13T22:06:04.723Z,61.42
2018-02-13T22:08:30.564Z,61.68
2018-02-13T22:10:57.938Z,61.69
2018-02-13T22:13:23.787Z,61.87
2018-02-13T22:15:53.150Z,61.89
2018-02-13T22:18:19.021Z,61.97
2018-02-13T22:20:44.866Z,62.13
2018-02-13T22:23:10.721Z,62.13
2018-02-13T22:25:36.571Z,61.93
2018-02-13T22:28:06.089Z,61.96
2018-02-13T22:30:31.961Z,61.65
2018-02-13T22:32:59.317Z,61.91
2018-02-13T22:35:25.189Z,62.23
2018-02-13T22:37:55.081Z,62.28
2018-02-13T22:40:20.945Z,62.56
2018-02-13T22:42:50.149Z,62.45
2018-02-13T22:45:15.993Z,62.04
2018-02-13T22:47:43.566Z,62.04
2018-02-13T22:50:09.408Z,62.03
2018-02-13T22:52:38.048Z,61.81
2018-02-13T22:55:03.901Z,61.79
2018-02-13T22:57:29.709Z,61.69
2018-02-13T22:59:55.569Z,62.07
2018-02-13T23:02:21.395Z,62.07
2018-02-13T23:04:50.304Z,62.24
2018-02-13T23:07:16.161Z,61.97
2018-02-13T23:09:45.379Z,61.28
2018-02-13T23:12:11.225Z,61.89
2018-02-13T23:14:40.948Z,61.27
2018-02-13T23:17:06.780Z,60.95
2018-02-13T23:19:34.113Z,60.71
2018-02-13T23:21:59.960Z,60.80
2018-02-13T23:24:29.210Z,60.91
2018-02-13T23:26:55.039Z,61.16
2018-02-13T23:29:24.222Z,61.00
2018-02-13T23:31:50.077Z,61.15
2018-02-13T23:34:15.923Z,60.90
2018-02-13T23:36:41.778Z,60.77
2018-02-13T23:39:07.615Z,61.37
2018-02-13T23:41:36.721Z,62.09
2018-02-13T23:44:02.601Z,62.54
2018-02-13T23:46:29.627Z,62.91
2018-02-13T23:48:55.483Z,62.64
2018-02-13T23:53:52.251Z,62.47
2018-02-13T23:56:19.198Z,62.00
2018-02-13T23:58:45.078Z,61.92
